Time,TemperatureF,DewpointF,PressureIn,WindDirection,WindDirectionDegrees,WindSpeedMPH,WindSpeedGustMPH,Humidity,HourlyPrecipIn,Conditions,Clouds,dailyrainin,SoftwareType,DateUTC
2013-02-27 00:02:00,39.0,38.0,29.48,South,182,7.0,20.0,96,0.02,,,0.70,,2013-02-27 05:02:00,
2013-02-27 00:12:00,39.0,38.0,29.48,South,182,7.0,20.0,96,0.02,,,0.70,,2013-02-27 05:12:00,
2013-02-27 00:22:00,39.0,38.0,29.48,South,177,7.0,13.0,96,0.02,,,0.70,,2013-02-27 05:22:00,
2013-02-27 00:32:00,38.0,37.0,29.49,South,187,5.0,12.0,96,0.02,,,0.70,,2013-02-27 05:32:00,
2013-02-27 00:42:00,38.0,37.0,29.49,South,187,5.0,12.0,96,0.02,,,0.70,,2013-02-27 05:42:00,
2013-02-27 00:52:00,38.0,37.0,29.49,South,187,4.0,10.0,96,0.01,,,0.70,,2013-02-27 05:52:00,
2013-02-27 01:02:00,38.0,37.0,29.50,South,178,8.0,14.0,96,0.01,,,0.71,,2013-02-27 06:02:00,
2013-02-27 01:11:00,38.0,37.0,29.50,South,178,8.0,14.0,96,0.01,,,0.71,,2013-02-27 06:11:00,
2013-02-27 01:22:00,38.0,37.0,29.50,South,170,8.0,14.0,96,0.01,,,0.71,,2013-02-27 06:22:00,
2013-02-27 01:33:00,38.0,37.0,29.51,SSW,213,6.0,10.0,96,0.02,,,0.72,,2013-02-27 06:33:00,
2013-02-27 01:42:00,38.0,37.0,29.51,SSW,213,6.0,10.0,96,0.02,,,0.72,,2013-02-27 06:42:00,
2013-02-27 01:52:00,38.0,37.0,29.51,SSW,200,6.0,13.0,96,0.02,,,0.72,,2013-02-27 06:52:00,
2013-02-27 02:01:00,38.0,37.0,29.52,SW,219,5.0,10.0,96,0.03,,,0.74,,2013-02-27 07:01:00,
2013-02-27 02:12:00,38.0,37.0,29.52,SW,219,5.0,10.0,96,0.03,,,0.74,,2013-02-27 07:12:00,
2013-02-27 02:21:00,37.0,36.0,29.52,South,182,4.0,9.0,96,0.04,,,0.75,,2013-02-27 07:21:00,
2013-02-27 02:32:00,37.0,36.0,29.52,SSW,207,4.0,7.0,96,0.04,,,0.76,,2013-02-27 07:32:00,
2013-02-27 02:42:00,37.0,36.0,29.52,SSW,207,4.0,7.0,96,0.04,,,0.76,,2013-02-27 07:42:00,
2013-02-27 02:51:00,37.0,36.0,29.53,SSW,194,3.0,6.0,96,0.06,,,0.78,,2013-02-27 07:51:00,
2013-02-27 03:01:00,37.0,36.0,29.53,SSW,192,4.0,9.0,96,0.07,,,0.81,,2013-02-27 08:01:00,
2013-02-27 03:11:00,37.0,36.0,29.53,SSW,192,4.0,9.0,96,0.07,,,0.81,,2013-02-27 08:11:00,
2013-02-27 03:21:00,37.0,36.0,29.53,South,183,5.0,9.0,96,0.08,,,0.82,,2013-02-27 08:21:00,
2013-02-27 03:32:00,37.0,36.0,29.53,South,188,5.0,9.0,96,0.09,,,0.85,,2013-02-27 08:32:00,
2013-02-27 03:42:00,37.0,36.0,29.53,South,188,5.0,9.0,96,0.09,,,0.85,,2013-02-27 08:42:00,
2013-02-27 03:52:00,37.0,36.0,29.52,SSW,192,5.0,10.0,96,0.08,,,0.86,,2013-02-27 08:52:00,
2013-02-27 04:02:00,37.0,36.0,29.53,SSW,192,4.0,9.0,96,0.05,,,0.86,,2013-02-27 09:02:00,
2013-02-27 04:12:00,37.0,36.0,29.53,SSW,192,4.0,9.0,96,0.05,,,0.86,,2013-02-27 09:12:00,
2013-02-27 04:22:00,37.0,36.0,29.53,South,180,4.0,10.0,96,0.04,,,0.86,,2013-02-27 09:22:00,
2013-02-27 04:32:00,37.0,36.0,29.53,South,186,3.0,7.0,96,0.02,,,0.87,,2013-02-27 09:32:00,
2013-02-27 04:41:00,37.0,36.0,29.53,South,186,3.0,7.0,96,0.02,,,0.87,,2013-02-27 09:41:00,
2013-02-27 04:51:00,37.0,36.0,29.53,South,178,3.0,6.0,96,0.01,,,0.87,,2013-02-27 09:51:00,
2013-02-27 05:01:00,37.0,36.0,29.54,South,188,5.0,7.0,96,0.02,,,0.88,,2013-02-27 10:01:00,
2013-02-27 05:12:00,37.0,36.0,29.54,South,188,5.0,7.0,96,0.02,,,0.88,,2013-02-27 10:12:00,
2013-02-27 05:22:00,37.0,36.0,29.54,South,186,5.0,10.0,96,0.02,,,0.88,,2013-02-27 10:22:00,
2013-02-27 05:32:00,37.0,36.0,29.54,SSW,211,4.0,11.0,96,0.02,,,0.89,,2013-02-27 10:32:00,
2013-02-27 05:42:00,37.0,36.0,29.54,SSW,211,4.0,11.0,96,0.02,,,0.89,,2013-02-27 10:42:00,
2013-02-27 05:52:00,37.0,36.0,29.54,SSW,203,5.0,10.0,96,0.03,,,0.90,,2013-02-27 10:52:00,
2013-02-27 06:12:00,37.0,36.0,29.54,South,184,4.0,7.0,96,0.02,,,0.90,,2013-02-27 11:12:00,
2013-02-27 06:22:00,37.0,36.0,29.54,South,179,5.0,11.0,96,0.02,,,0.90,,2013-02-27 11:22:00,
2013-02-27 06:32:00,37.0,36.0,29.55,SSE,167,4.0,7.0,96,0.01,,,0.90,,2013-02-27 11:32:00,
2013-02-27 06:42:00,37.0,36.0,29.55,SSE,167,4.0,7.0,96,0.01,,,0.90,,2013-02-27 11:42:00,
2013-02-27 06:52:00,37.0,36.0,29.55,South,176,6.0,10.0,96,0.01,,,0.91,,2013-02-27 11:52:00,
2013-02-27 07:02:00,38.0,37.0,29.56,South,183,7.0,10.0,96,0.03,,,0.93,,2013-02-27 12:02:00,
2013-02-27 07:13:00,38.0,37.0,29.56,South,183,7.0,10.0,96,0.03,,,0.93,,2013-02-27 12:13:00,
2013-02-27 07:22:00,38.0,37.0,29.56,SSW,204,11.0,16.0,96,0.03,,,0.93,,2013-02-27 12:22:00,
2013-02-27 07:33:00,39.0,38.0,29.56,South,191,11.0,20.0,96,0.04,,,0.94,,2013-02-27 12:33:00,
2013-02-27 07:42:00,39.0,38.0,29.56,South,191,11.0,20.0,96,0.04,,,0.94,,2013-02-27 12:42:00,
2013-02-27 07:52:00,39.0,38.0,29.57,South,179,12.0,19.0,96,0.03,,,0.94,,2013-02-27 12:52:00,
2013-02-27 08:03:00,39.0,38.0,29.58,SSE,163,11.0,19.0,96,0.02,,,0.95,,2013-02-27 13:03:00,
2013-02-27 08:11:00,39.0,38.0,29.58,SSE,163,11.0,19.0,96,0.02,,,0.95,,2013-02-27 13:11:00,
2013-02-27 08:22:00,39.0,38.0,29.59,West,260,7.0,16.0,95,0.03,,,0.96,,2013-02-27 13:22:00,
2013-02-27 08:32:00,37.0,36.0,29.61,SSE,167,7.0,16.0,95,0.03,,,0.97,,2013-02-27 13:32:00,
2013-02-27 08:42:00,37.0,36.0,29.61,SSE,167,7.0,16.0,95,0.03,,,0.97,,2013-02-27 13:42:00,
2013-02-27 08:52:00,37.0,35.0,29.61,South,183,8.0,14.0,94,0.04,,,0.98,,2013-02-27 13:52:00,
2013-02-27 09:02:00,36.0,34.0,29.62,SSW,192,4.0,10.0,94,0.05,,,1.00,,2013-02-27 14:02:00,
2013-02-27 09:12:00,36.0,34.0,29.62,SSW,192,4.0,10.0,94,0.05,,,1.00,,2013-02-27 14:12:00,
2013-02-27 09:22:00,36.0,34.0,29.62,SSW,192,4.0,10.0,94,0.05,,,1.00,,2013-02-27 14:22:00,
2013-02-27 09:32:00,36.0,34.0,29.62,SSW,192,4.0,10.0,94,0.05,,,1.00,,2013-02-27 14:32:00,
2013-02-27 09:42:00,36.0,34.0,29.62,SSW,192,4.0,10.0,94,0.05,,,1.00,,2013-02-27 14:42:00,